sensor_id;sensor_type;location;lat;lon;timestamp;P1;durP1;ratioP1;P2;durP2;ratioP2
56629;SDS011;42502;40.732;-74.254;2023-02-28T00:01:05;3.55;;;0.80;;
56629;SDS011;42502;40.732;-74.254;2023-02-28T00:03:06;5.28;;;1.10;;
56629;SDS011;42502;40.732;-74.254;2023-02-28T00:05:07;2.45;;;0.80;;
56629;SDS011;42502;40.732;-74.254;2023-02-28T00:07:09;4.15;;;0.98;;
56629;SDS011;42502;40.732;-74.254;2023-02-28T00:09:10;2.05;;;0.85;;
56629;SDS011;42502;40.732;-74.254;2023-02-28T00:11:14;2.13;;;0.80;;
56629;SDS011;42502;40.732;-74.254;2023-02-28T00:13:18;4.15;;;0.90;;
56629;SDS011;42502;40.732;-74.254;2023-02-28T00:15:20;5.97;;;0.85;;
56629;SDS011;42502;40.732;-74.254;2023-02-28T00:17:22;3.45;;;0.90;;
56629;SDS011;42502;40.732;-74.254;2023-02-28T00:19:23;3.45;;;0.80;;
56629;SDS011;42502;40.732;-74.254;2023-02-28T00:21:24;2.72;;;1.00;;
56629;SDS011;42502;40.732;-74.254;2023-02-28T00:23:26;2.67;;;0.70;;
56629;SDS011;42502;40.732;-74.254;2023-02-28T00:25:27;4.13;;;0.70;;
56629;SDS011;42502;40.732;-74.254;2023-02-28T00:27:28;1.98;;;0.70;;
56629;SDS011;42502;40.732;-74.254;2023-02-28T00:29:29;1.15;;;0.70;;
56629;SDS011;42502;40.732;-74.254;2023-02-28T00:31:30;4.03;;;0.95;;
56629;SDS011;42502;40.732;-74.254;2023-02-28T00:33:31;5.68;;;0.80;;
56629;SDS011;42502;40.732;-74.254;2023-02-28T00:35:32;7.63;;;0.80;;
56629;SDS011;42502;40.732;-74.254;2023-02-28T00:37:33;1.30;;;0.52;;
56629;SDS011;42502;40.732;-74.254;2023-02-28T00:39:35;4.28;;;0.70;;
56629;SDS011;42502;40.732;-74.254;2023-02-28T00:41:37;3.80;;;0.70;;
56629;SDS011;42502;40.732;-74.254;2023-02-28T00:43:38;2.72;;;0.60;;
56629;SDS011;42502;40.732;-74.254;2023-02-28T00:45:39;7.13;;;0.70;;
56629;SDS011;42502;40.732;-74.254;2023-02-28T00:47:40;4.72;;;0.73;;
56629;SDS011;42502;40.732;-74.254;2023-02-28T00:49:41;2.92;;;0.77;;
56629;SDS011;42502;40.732;-74.254;2023-02-28T00:51:42;2.38;;;0.60;;
56629;SDS011;42502;40.732;-74.254;2023-02-28T00:53:43;3.63;;;0.60;;
56629;SDS011;42502;40.732;-74.254;2023-02-28T00:55:44;4.00;;;0.60;;
56629;SDS011;42502;40.732;-74.254;2023-02-28T00:57:44;8.10;;;0.55;;
56629;SDS011;42502;40.732;-74.254;2023-02-28T00:59:48;10.50;;;0.90;;
56629;SDS011;42502;40.732;-74.254;2023-02-28T01:01:49;8.50;;;0.57;;
56629;SDS011;42502;40.732;-74.254;2023-02-28T01:03:53;7.75;;;0.60;;
56629;SDS011;42502;40.732;-74.254;2023-02-28T01:05:54;1.05;;;0.50;;
56629;SDS011;42502;40.732;-74.254;2023-02-28T01:07:54;7.95;;;0.50;;
56629;SDS011;42502;40.732;-74.254;2023-02-28T01:09:55;4.35;;;0.50;;
56629;SDS011;42502;40.732;-74.254;2023-02-28T01:11:56;7.47;;;0.63;;
56629;SDS011;42502;40.732;-74.254;2023-02-28T01:13:57;11.02;;;0.50;;
56629;SDS011;42502;40.732;-74.254;2023-02-28T01:16:02;6.75;;;0.63;;
56629;SDS011;42502;40.732;-74.254;2023-02-28T01:18:03;6.97;;;0.40;;
56629;SDS011;42502;40.732;-74.254;2023-02-28T01:20:04;8.63;;;0.50;;
56629;SDS011;42502;40.732;-74.254;2023-02-28T01:22:05;5.25;;;0.50;;
56629;SDS011;42502;40.732;-74.254;2023-02-28T01:24:09;6.88;;;0.50;;
56629;SDS011;42502;40.732;-74.254;2023-02-28T01:26:14;3.20;;;0.45;;
56629;SDS011;42502;40.732;-74.254;2023-02-28T01:28:16;7.55;;;0.55;;
56629;SDS011;42502;40.732;-74.254;2023-02-28T01:30:17;3.10;;;0.30;;
56629;SDS011;42502;40.732;-74.254;2023-02-28T01:32:18;3.35;;;0.50;;
56629;SDS011;42502;40.732;-74.254;2023-02-28T01:34:19;3.67;;;0.50;;
56629;SDS011;42502;40.732;-74.254;2023-02-28T01:36:21;4.57;;;0.40;;
56629;SDS011;42502;40.732;-74.254;2023-02-28T01:38:23;3.17;;;0.40;;
56629;SDS011;42502;40.732;-74.254;2023-02-28T01:40:24;3.53;;;0.30;;
56629;SDS011;42502;40.732;-74.254;2023-02-28T01:42:25;1.65;;;0.50;;
56629;SDS011;42502;40.732;-74.254;2023-02-28T01:46:54;15.07;;;0.40;;
56629;SDS011;42502;40.732;-74.254;2023-02-28T01:51:38;16.70;;;0.50;;
56629;SDS011;42502;40.732;-74.254;2023-02-28T01:53:44;7.20;;;0.40;;
56629;SDS011;42502;40.732;-74.254;2023-02-28T01:55:48;4.28;;;0.40;;
56629;SDS011;42502;40.732;-74.254;2023-02-28T01:57:52;5.18;;;0.40;;
56629;SDS011;42502;40.732;-74.254;2023-02-28T02:02:00;4.50;;;0.50;;
56629;SDS011;42502;40.732;-74.254;2023-02-28T02:04:02;4.93;;;0.40;;
56629;SDS011;42502;40.732;-74.254;2023-02-28T02:06:04;2.15;;;0.40;;
56629;SDS011;42502;40.732;-74.254;2023-02-28T02:08:09;3.50;;;0.30;;
56629;SDS011;42502;40.732;-74.254;2023-02-28T02:14:54;6.65;;;0.35;;
56629;SDS011;42502;40.732;-74.254;2023-02-28T02:17:11;1.27;;;0.32;;
56629;SDS011;42502;40.732;-74.254;2023-02-28T02:22:01;1.20;;;0.30;;
56629;SDS011;42502;40.732;-74.254;2023-02-28T02:26:52;2.03;;;0.38;;
56629;SDS011;42502;40.732;-74.254;2023-02-28T02:29:19;0.85;;;0.30;;
56629;SDS011;42502;40.732;-74.254;2023-02-28T02:34:29;0.88;;;0.40;;
56629;SDS011;42502;40.732;-74.254;2023-02-28T02:36:41;1.63;;;0.30;;
56629;SDS011;42502;40.732;-74.254;2023-02-28T02:39:14;1.85;;;0.50;;
56629;SDS011;42502;40.732;-74.254;2023-02-28T02:41:31;0.60;;;0.30;;
56629;SDS011;42502;40.732;-74.254;2023-02-28T02:43:46;3.08;;;0.40;;
56629;SDS011;42502;40.732;-74.254;2023-02-28T02:46:53;1.65;;;0.40;;
56629;SDS011;42502;40.732;-74.254;2023-02-28T02:48:31;0.65;;;0.40;;
56629;SDS011;42502;40.732;-74.254;2023-02-28T02:50:41;0.80;;;0.43;;
56629;SDS011;42502;40.732;-74.254;2023-02-28T02:52:48;0.73;;;0.30;;
56629;SDS011;42502;40.732;-74.254;2023-02-28T02:55:07;5.65;;;0.40;;
56629;SDS011;42502;40.732;-74.254;2023-02-28T02:57:21;1.42;;;0.35;;
56629;SDS011;42502;40.732;-74.254;2023-02-28T02:59:25;1.00;;;0.30;;
56629;SDS011;42502;40.732;-74.254;2023-02-28T03:01:31;0.75;;;0.35;;
56629;SDS011;42502;40.732;-74.254;2023-02-28T03:03:33;1.10;;;0.40;;
56629;SDS011;42502;40.732;-74.254;2023-02-28T03:05:38;3.40;;;0.40;;
56629;SDS011;42502;40.732;-74.254;2023-02-28T03:07:44;1.52;;;0.30;;
56629;SDS011;42502;40.732;-74.254;2023-02-28T03:09:52;1.58;;;0.35;;
56629;SDS011;42502;40.732;-74.254;2023-02-28T03:11:57;2.40;;;0.30;;
56629;SDS011;42502;40.732;-74.254;2023-02-28T03:14:07;2.38;;;0.30;;
56629;SDS011;42502;40.732;-74.254;2023-02-28T03:18:36;1.55;;;0.20;;
56629;SDS011;42502;40.732;-74.254;2023-02-28T03:20:59;1.83;;;0.30;;
56629;SDS011;42502;40.732;-74.254;2023-02-28T03:23:21;0.93;;;0.30;;
56629;SDS011;42502;40.732;-74.254;2023-02-28T03:27:41;1.50;;;0.35;;
56629;SDS011;42502;40.732;-74.254;2023-02-28T03:30:03;0.80;;;0.30;;
56629;SDS011;42502;40.732;-74.254;2023-02-28T03:32:11;1.90;;;0.30;;
56629;SDS011;42502;40.732;-74.254;2023-02-28T03:34:33;1.88;;;0.40;;
56629;SDS011;42502;40.732;-74.254;2023-02-28T03:36:39;1.95;;;0.30;;
56629;SDS011;42502;40.732;-74.254;2023-02-28T03:39:04;2.85;;;0.30;;
56629;SDS011;42502;40.732;-74.254;2023-02-28T03:41:14;6.93;;;0.68;;
56629;SDS011;42502;40.732;-74.254;2023-02-28T03:43:20;2.63;;;0.30;;
56629;SDS011;42502;40.732;-74.254;2023-02-28T03:45:26;2.78;;;0.30;;
56629;SDS011;42502;40.732;-74.254;2023-02-28T03:47:40;1.70;;;0.32;;
56629;SDS011;42502;40.732;-74.254;2023-02-28T03:49:49;1.95;;;0.47;;
56629;SDS011;42502;40.732;-74.254;2023-02-28T03:51:54;1.52;;;0.60;;
56629;SDS011;42502;40.732;-74.254;2023-02-28T03:54:09;2.50;;;0.32;;
56629;SDS011;42502;40.732;-74.254;2023-02-28T03:56:16;0.65;;;0.30;;
56629;SDS011;42502;40.732;-74.254;2023-02-28T03:58:38;0.40;;;0.20;;
56629;SDS011;42502;40.732;-74.254;2023-02-28T04:01:04;1.77;;;0.40;;
56629;SDS011;42502;40.732;-74.254;2023-02-28T04:03:09;2.63;;;0.35;;
56629;SDS011;42502;40.732;-74.254;2023-02-28T04:05:10;1.48;;;0.32;;
56629;SDS011;42502;40.732;-74.254;2023-02-28T04:07:11;0.82;;;0.38;;
56629;SDS011;42502;40.732;-74.254;2023-02-28T04:09:13;0.75;;;0.30;;
56629;SDS011;42502;40.732;-74.254;2023-02-28T04:15:21;0.65;;;0.30;;
56629;SDS011;42502;40.732;-74.254;2023-02-28T04:17:24;2.55;;;0.30;;
56629;SDS011;42502;40.732;-74.254;2023-02-28T04:19:25;0.30;;;0.30;;
56629;SDS011;42502;40.732;-74.254;2023-02-28T04:21:28;0.73;;;0.30;;
56629;SDS011;42502;40.732;-74.254;2023-02-28T04:23:30;0.65;;;0.20;;
56629;SDS011;42502;40.732;-74.254;2023-02-28T04:25:31;0.50;;;0.30;;
56629;SDS011;42502;40.732;-74.254;2023-02-28T04:27:32;1.00;;;0.30;;
56629;SDS011;42502;40.732;-74.254;2023-02-28T04:29:34;0.38;;;0.28;;
56629;SDS011;42502;40.732;-74.254;2023-02-28T04:31:35;1.02;;;0.40;;
56629;SDS011;42502;40.732;-74.254;2023-02-28T04:33:36;1.80;;;0.30;;
56629;SDS011;42502;40.732;-74.254;2023-02-28T04:35:37;1.27;;;0.40;;
56629;SDS011;42502;40.732;-74.254;2023-02-28T04:37:37;3.20;;;0.30;;
56629;SDS011;42502;40.732;-74.254;2023-02-28T04:39:38;1.35;;;0.30;;
56629;SDS011;42502;40.732;-74.254;2023-02-28T04:41:40;1.17;;;0.20;;
56629;SDS011;42502;40.732;-74.254;2023-02-28T04:43:41;3.30;;;0.30;;
56629;SDS011;42502;40.732;-74.254;2023-02-28T04:45:42;0.30;;;0.20;;
56629;SDS011;42502;40.732;-74.254;2023-02-28T04:47:42;0.55;;;0.20;;
56629;SDS011;42502;40.732;-74.254;2023-02-28T04:49:43;0.55;;;0.30;;
56629;SDS011;42502;40.732;-74.254;2023-02-28T04:51:44;1.15;;;0.20;;
56629;SDS011;42502;40.732;-74.254;2023-02-28T04:53:46;0.57;;;0.20;;
56629;SDS011;42502;40.732;-74.254;2023-02-28T04:55:50;1.10;;;0.20;;
56629;SDS011;42502;40.732;-74.254;2023-02-28T04:57:51;0.38;;;0.22;;
56629;SDS011;42502;40.732;-74.254;2023-02-28T04:59:52;1.65;;;0.30;;
56629;SDS011;42502;40.732;-74.254;2023-02-28T05:01:53;1.45;;;0.40;;
56629;SDS011;42502;40.732;-74.254;2023-02-28T05:03:54;0.25;;;0.22;;
56629;SDS011;42502;40.732;-74.254;2023-02-28T05:05:57;0.20;;;0.15;;
56629;SDS011;42502;40.732;-74.254;2023-02-28T05:07:58;0.30;;;0.30;;
56629;SDS011;42502;40.732;-74.254;2023-02-28T05:09:58;0.35;;;0.20;;
56629;SDS011;42502;40.732;-74.254;2023-02-28T05:11:59;0.20;;;0.20;;
56629;SDS011;42502;40.732;-74.254;2023-02-28T05:14:07;0.40;;;0.22;;
56629;SDS011;42502;40.732;-74.254;2023-02-28T05:16:12;0.73;;;0.25;;
56629;SDS011;42502;40.732;-74.254;2023-02-28T05:18:13;2.28;;;0.20;;
56629;SDS011;42502;40.732;-74.254;2023-02-28T05:20:14;0.30;;;0.20;;
56629;SDS011;42502;40.732;-74.254;2023-02-28T05:22:18;0.43;;;0.30;;
56629;SDS011;42502;40.732;-74.254;2023-02-28T05:24:21;0.30;;;0.20;;
56629;SDS011;42502;40.732;-74.254;2023-02-28T05:26:25;1.77;;;0.30;;
56629;SDS011;42502;40.732;-74.254;2023-02-28T05:28:27;1.17;;;0.30;;
56629;SDS011;42502;40.732;-74.254;2023-02-28T05:30:28;0.50;;;0.30;;
56629;SDS011;42502;40.732;-74.254;2023-02-28T05:32:30;1.38;;;0.20;;
56629;SDS011;42502;40.732;-74.254;2023-02-28T05:34:33;0.45;;;0.20;;
56629;SDS011;42502;40.732;-74.254;2023-02-28T05:36:36;0.63;;;0.25;;
56629;SDS011;42502;40.732;-74.254;2023-02-28T05:38:37;0.30;;;0.20;;
56629;SDS011;42502;40.732;-74.254;2023-02-28T05:40:38;1.67;;;0.20;;
56629;SDS011;42502;40.732;-74.254;2023-02-28T05:42:40;0.55;;;0.20;;
56629;SDS011;42502;40.732;-74.254;2023-02-28T05:44:41;0.30;;;0.20;;
56629;SDS011;42502;40.732;-74.254;2023-02-28T05:46:42;0.95;;;0.20;;
56629;SDS011;42502;40.732;-74.254;2023-02-28T05:48:45;1.30;;;0.20;;
56629;SDS011;42502;40.732;-74.254;2023-02-28T05:50:47;4.90;;;0.28;;
56629;SDS011;42502;40.732;-74.254;2023-02-28T05:52:52;0.28;;;0.20;;
56629;SDS011;42502;40.732;-74.254;2023-02-28T05:54:58;1.48;;;0.20;;
56629;SDS011;42502;40.732;-74.254;2023-02-28T05:56:59;0.93;;;0.25;;
56629;SDS011;42502;40.732;-74.254;2023-02-28T05:59:00;0.22;;;0.20;;
56629;SDS011;42502;40.732;-74.254;2023-02-28T06:01:18;1.80;;;0.20;;
56629;SDS011;42502;40.732;-74.254;2023-02-28T06:03:24;0.17;;;0.17;;
56629;SDS011;42502;40.732;-74.254;2023-02-28T06:05:28;0.30;;;0.20;;
56629;SDS011;42502;40.732;-74.254;2023-02-28T06:07:29;0.85;;;0.20;;
56629;SDS011;42502;40.732;-74.254;2023-02-28T06:09:30;0.57;;;0.20;;
56629;SDS011;42502;40.732;-74.254;2023-02-28T06:11:31;0.20;;;0.10;;
56629;SDS011;42502;40.732;-74.254;2023-02-28T06:13:33;1.33;;;0.20;;
56629;SDS011;42502;40.732;-74.254;2023-02-28T06:15:34;0.30;;;0.20;;
56629;SDS011;42502;40.732;-74.254;2023-02-28T06:17:37;0.63;;;0.10;;
56629;SDS011;42502;40.732;-74.254;2023-02-28T06:19:38;0.25;;;0.20;;
56629;SDS011;42502;40.732;-74.254;2023-02-28T06:21:41;0.40;;;0.20;;
56629;SDS011;42502;40.732;-74.254;2023-02-28T06:23:42;0.20;;;0.10;;
56629;SDS011;42502;40.732;-74.254;2023-02-28T06:25:46;0.35;;;0.20;;
56629;SDS011;42502;40.732;-74.254;2023-02-28T06:27:47;0.60;;;0.10;;
56629;SDS011;42502;40.732;-74.254;2023-02-28T06:29:53;0.30;;;0.20;;
56629;SDS011;42502;40.732;-74.254;2023-02-28T06:32:04;1.73;;;0.15;;
56629;SDS011;42502;40.732;-74.254;2023-02-28T06:34:04;0.30;;;0.10;;
56629;SDS011;42502;40.732;-74.254;2023-02-28T06:36:06;0.10;;;0.10;;
56629;SDS011;42502;40.732;-74.254;2023-02-28T06:38:07;0.32;;;0.10;;
56629;SDS011;42502;40.732;-74.254;2023-02-28T06:40:14;0.22;;;0.20;;
56629;SDS011;42502;40.732;-74.254;2023-02-28T06:42:15;0.20;;;0.10;;
56629;SDS011;42502;40.732;-74.254;2023-02-28T06:44:16;0.20;;;0.15;;
56629;SDS011;42502;40.732;-74.254;2023-02-28T06:46:17;0.28;;;0.10;;
56629;SDS011;42502;40.732;-74.254;2023-02-28T06:48:19;0.10;;;0.10;;
56629;SDS011;42502;40.732;-74.254;2023-02-28T06:50:20;0.20;;;0.10;;
56629;SDS011;42502;40.732;-74.254;2023-02-28T06:52:21;0.17;;;0.10;;
56629;SDS011;42502;40.732;-74.254;2023-02-28T06:54:22;0.10;;;0.08;;
56629;SDS011;42502;40.732;-74.254;2023-02-28T06:56:23;0.20;;;0.15;;
56629;SDS011;42502;40.732;-74.254;2023-02-28T06:58:24;0.60;;;0.10;;
56629;SDS011;42502;40.732;-74.254;2023-02-28T07:00:25;0.20;;;0.10;;
56629;SDS011;42502;40.732;-74.254;2023-02-28T07:02:32;0.38;;;0.10;;
56629;SDS011;42502;40.732;-74.254;2023-02-28T07:04:33;0.10;;;0.10;;
56629;SDS011;42502;40.732;-74.254;2023-02-28T07:06:33;0.50;;;0.20;;
56629;SDS011;42502;40.732;-74.254;2023-02-28T07:08:35;0.20;;;0.10;;
56629;SDS011;42502;40.732;-74.254;2023-02-28T07:10:39;0.30;;;0.20;;
56629;SDS011;42502;40.732;-74.254;2023-02-28T07:12:44;0.10;;;0.10;;
56629;SDS011;42502;40.732;-74.254;2023-02-28T07:14:44;0.15;;;0.10;;
56629;SDS011;42502;40.732;-74.254;2023-02-28T07:16:45;0.10;;;0.10;;
56629;SDS011;42502;40.732;-74.254;2023-02-28T07:18:46;0.10;;;0.10;;
56629;SDS011;42502;40.732;-74.254;2023-02-28T07:20:47;0.10;;;0.10;;
56629;SDS011;42502;40.732;-74.254;2023-02-28T07:22:49;0.10;;;0.08;;
56629;SDS011;42502;40.732;-74.254;2023-02-28T07:24:56;0.20;;;0.10;;
56629;SDS011;42502;40.732;-74.254;2023-02-28T07:26:57;0.10;;;0.10;;
56629;SDS011;42502;40.732;-74.254;2023-02-28T07:28:57;0.17;;;0.13;;
56629;SDS011;42502;40.732;-74.254;2023-02-28T07:31:04;0.13;;;0.10;;
56629;SDS011;42502;40.732;-74.254;2023-02-28T07:33:12;1.00;;;0.10;;
56629;SDS011;42502;40.732;-74.254;2023-02-28T07:35:13;0.10;;;0.10;;
56629;SDS011;42502;40.732;-74.254;2023-02-28T07:37:17;0.45;;;0.10;;
56629;SDS011;42502;40.732;-74.254;2023-02-28T07:39:17;0.20;;;0.10;;
56629;SDS011;42502;40.732;-74.254;2023-02-28T07:41:19;0.10;;;0.10;;
56629;SDS011;42502;40.732;-74.254;2023-02-28T07:43:21;0.57;;;0.17;;
56629;SDS011;42502;40.732;-74.254;2023-02-28T07:45:29;0.30;;;0.10;;
56629;SDS011;42502;40.732;-74.254;2023-02-28T07:47:34;0.10;;;0.10;;
56629;SDS011;42502;40.732;-74.254;2023-02-28T07:49:38;0.20;;;0.10;;
56629;SDS011;42502;40.732;-74.254;2023-02-28T07:51:39;0.20;;;0.10;;
56629;SDS011;42502;40.732;-74.254;2023-02-28T07:53:40;0.10;;;0.10;;
56629;SDS011;42502;40.732;-74.254;2023-02-28T07:55:41;0.57;;;0.08;;
56629;SDS011;42502;40.732;-74.254;2023-02-28T07:57:44;0.10;;;0.10;;
56629;SDS011;42502;40.732;-74.254;2023-02-28T07:59:45;0.17;;;0.10;;
56629;SDS011;42502;40.732;-74.254;2023-02-28T08:01:46;0.10;;;0.10;;
56629;SDS011;42502;40.732;-74.254;2023-02-28T08:03:48;0.10;;;0.10;;
56629;SDS011;42502;40.732;-74.254;2023-02-28T08:05:50;0.52;;;0.10;;
56629;SDS011;42502;40.732;-74.254;2023-02-28T08:07:52;0.10;;;0.10;;
56629;SDS011;42502;40.732;-74.254;2023-02-28T08:09:58;0.10;;;0.10;;
56629;SDS011;42502;40.732;-74.254;2023-02-28T08:11:59;0.15;;;0.10;;
56629;SDS011;42502;40.732;-74.254;2023-02-28T08:14:00;0.10;;;0.10;;
56629;SDS011;42502;40.732;-74.254;2023-02-28T08:16:04;0.10;;;0.10;;
56629;SDS011;42502;40.732;-74.254;2023-02-28T08:18:05;0.15;;;0.10;;
56629;SDS011;42502;40.732;-74.254;2023-02-28T08:20:06;0.20;;;0.10;;
56629;SDS011;42502;40.732;-74.254;2023-02-28T08:22:09;0.10;;;0.10;;
56629;SDS011;42502;40.732;-74.254;2023-02-28T08:24:09;0.22;;;0.03;;
56629;SDS011;42502;40.732;-74.254;2023-02-28T08:26:10;0.13;;;0.10;;
56629;SDS011;42502;40.732;-74.254;2023-02-28T08:28:15;0.10;;;0.10;;
56629;SDS011;42502;40.732;-74.254;2023-02-28T08:30:15;0.10;;;0.10;;
56629;SDS011;42502;40.732;-74.254;2023-02-28T08:32:16;0.20;;;0.10;;
56629;SDS011;42502;40.732;-74.254;2023-02-28T08:34:17;0.20;;;0.10;;
56629;SDS011;42502;40.732;-74.254;2023-02-28T08:36:21;0.30;;;0.10;;
56629;SDS011;42502;40.732;-74.254;2023-02-28T08:38:22;0.00;;;0.00;;
56629;SDS011;42502;40.732;-74.254;2023-02-28T08:40:23;1.10;;;0.10;;
56629;SDS011;42502;40.732;-74.254;2023-02-28T08:42:24;0.20;;;0.03;;
56629;SDS011;42502;40.732;-74.254;2023-02-28T08:44:25;0.50;;;0.00;;
56629;SDS011;42502;40.732;-74.254;2023-02-28T08:46:27;0.00;;;0.00;;
56629;SDS011;42502;40.732;-74.254;2023-02-28T08:48:28;0.10;;;0.10;;
56629;SDS011;42502;40.732;-74.254;2023-02-28T08:50:30;0.10;;;0.10;;
56629;SDS011;42502;40.732;-74.254;2023-02-28T08:52:34;0.10;;;0.10;;
56629;SDS011;42502;40.732;-74.254;2023-02-28T08:54:35;1.45;;;0.03;;
56629;SDS011;42502;40.732;-74.254;2023-02-28T08:56:36;0.50;;;0.10;;
56629;SDS011;42502;40.732;-74.254;2023-02-28T08:58:37;0.05;;;0.05;;
56629;SDS011;42502;40.732;-74.254;2023-02-28T09:00:38;0.30;;;0.10;;
56629;SDS011;42502;40.732;-74.254;2023-02-28T09:02:39;0.82;;;0.08;;
56629;SDS011;42502;40.732;-74.254;2023-02-28T09:04:45;0.20;;;0.10;;
56629;SDS011;42502;40.732;-74.254;2023-02-28T09:06:46;0.10;;;0.10;;
56629;SDS011;42502;40.732;-74.254;2023-02-28T09:08:48;0.10;;;0.05;;
56629;SDS011;42502;40.732;-74.254;2023-02-28T09:10:50;0.00;;;0.00;;
56629;SDS011;42502;40.732;-74.254;2023-02-28T09:12:52;0.95;;;0.00;;
56629;SDS011;42502;40.732;-74.254;2023-02-28T09:14:53;0.20;;;0.10;;
56629;SDS011;42502;40.732;-74.254;2023-02-28T09:16:54;0.03;;;0.03;;
56629;SDS011;42502;40.732;-74.254;2023-02-28T09:18:55;0.45;;;0.10;;
56629;SDS011;42502;40.732;-74.254;2023-02-28T09:20:56;0.10;;;0.00;;
56629;SDS011;42502;40.732;-74.254;2023-02-28T09:22:57;0.05;;;0.05;;
56629;SDS011;42502;40.732;-74.254;2023-02-28T09:24:58;0.10;;;0.00;;
56629;SDS011;42502;40.732;-74.254;2023-02-28T09:26:59;0.00;;;0.00;;
56629;SDS011;42502;40.732;-74.254;2023-02-28T09:29:03;0.08;;;0.08;;
56629;SDS011;42502;40.732;-74.254;2023-02-28T09:31:14;0.40;;;0.10;;
56629;SDS011;42502;40.732;-74.254;2023-02-28T09:33:21;0.03;;;0.00;;
56629;SDS011;42502;40.732;-74.254;2023-02-28T09:35:23;0.10;;;0.00;;
56629;SDS011;42502;40.732;-74.254;2023-02-28T09:37:25;0.00;;;0.00;;
56629;SDS011;42502;40.732;-74.254;2023-02-28T09:39:31;0.22;;;0.10;;
56629;SDS011;42502;40.732;-74.254;2023-02-28T09:41:37;0.10;;;0.00;;
56629;SDS011;42502;40.732;-74.254;2023-02-28T09:43:52;0.00;;;0.00;;
56629;SDS011;42502;40.732;-74.254;2023-02-28T09:46:07;0.38;;;0.10;;
56629;SDS011;42502;40.732;-74.254;2023-02-28T09:50:40;0.10;;;0.00;;
56629;SDS011;42502;40.732;-74.254;2023-02-28T09:52:46;0.03;;;0.00;;
56629;SDS011;42502;40.732;-74.254;2023-02-28T09:54:50;0.25;;;0.03;;
56629;SDS011;42502;40.732;-74.254;2023-02-28T09:56:59;0.00;;;0.00;;
56629;SDS011;42502;40.732;-74.254;2023-02-28T10:03:32;0.40;;;0.00;;
56629;SDS011;42502;40.732;-74.254;2023-02-28T10:05:38;0.10;;;0.00;;
56629;SDS011;42502;40.732;-74.254;2023-02-28T10:09:59;0.00;;;0.00;;
56629;SDS011;42502;40.732;-74.254;2023-02-28T10:12:05;0.47;;;0.00;;
56629;SDS011;42502;40.732;-74.254;2023-02-28T10:18:24;0.30;;;0.05;;
56629;SDS011;42502;40.732;-74.254;2023-02-28T10:22:36;1.10;;;0.00;;
56629;SDS011;42502;40.732;-74.254;2023-02-28T10:27:01;0.10;;;0.00;;
56629;SDS011;42502;40.732;-74.254;2023-02-28T10:29:12;0.10;;;0.00;;
56629;SDS011;42502;40.732;-74.254;2023-02-28T10:31:19;0.10;;;0.00;;
56629;SDS011;42502;40.732;-74.254;2023-02-28T10:33:22;0.20;;;0.00;;
56629;SDS011;42502;40.732;-74.254;2023-02-28T10:35:31;2.20;;;0.00;;
56629;SDS011;42502;40.732;-74.254;2023-02-28T10:37:33;0.03;;;0.00;;
56629;SDS011;42502;40.732;-74.254;2023-02-28T10:39:42;0.10;;;0.00;;
56629;SDS011;42502;40.732;-74.254;2023-02-28T10:41:45;0.00;;;0.00;;
56629;SDS011;42502;40.732;-74.254;2023-02-28T10:43:47;0.28;;;0.10;;
56629;SDS011;42502;40.732;-74.254;2023-02-28T10:45:59;1.75;;;0.10;;
56629;SDS011;42502;40.732;-74.254;2023-02-28T10:48:05;0.20;;;0.10;;
56629;SDS011;42502;40.732;-74.254;2023-02-28T10:52:41;3.55;;;0.08;;
56629;SDS011;42502;40.732;-74.254;2023-02-28T10:54:42;0.10;;;0.10;;
56629;SDS011;42502;40.732;-74.254;2023-02-28T10:56:43;3.13;;;0.00;;
56629;SDS011;42502;40.732;-74.254;2023-02-28T11:01:03;0.75;;;0.00;;
56629;SDS011;42502;40.732;-74.254;2023-02-28T11:03:05;0.50;;;0.05;;
56629;SDS011;42502;40.732;-74.254;2023-02-28T11:05:29;0.40;;;0.00;;
56629;SDS011;42502;40.732;-74.254;2023-02-28T11:07:31;2.28;;;0.00;;
56629;SDS011;42502;40.732;-74.254;2023-02-28T11:09:36;0.03;;;0.00;;
56629;SDS011;42502;40.732;-74.254;2023-02-28T11:11:48;1.95;;;0.00;;
56629;SDS011;42502;40.732;-74.254;2023-02-28T11:13:51;0.63;;;0.10;;
56629;SDS011;42502;40.732;-74.254;2023-02-28T11:15:58;0.10;;;0.00;;
56629;SDS011;42502;40.732;-74.254;2023-02-28T11:18:21;0.77;;;0.15;;
56629;SDS011;42502;40.732;-74.254;2023-02-28T11:20:36;0.10;;;0.10;;
56629;SDS011;42502;40.732;-74.254;2023-02-28T11:22:37;1.35;;;0.00;;
56629;SDS011;42502;40.732;-74.254;2023-02-28T11:24:47;0.85;;;0.10;;
56629;SDS011;42502;40.732;-74.254;2023-02-28T11:26:52;2.58;;;0.08;;
56629;SDS011;42502;40.732;-74.254;2023-02-28T11:29:05;2.28;;;0.20;;
56629;SDS011;42502;40.732;-74.254;2023-02-28T11:31:17;0.75;;;0.10;;
56629;SDS011;42502;40.732;-74.254;2023-02-28T11:35:32;0.60;;;0.10;;
56629;SDS011;42502;40.732;-74.254;2023-02-28T11:37:37;0.10;;;0.00;;
56629;SDS011;42502;40.732;-74.254;2023-02-28T11:39:38;0.47;;;0.10;;
56629;SDS011;42502;40.732;-74.254;2023-02-28T11:46:37;0.10;;;0.00;;
56629;SDS011;42502;40.732;-74.254;2023-02-28T11:51:01;0.20;;;0.10;;
56629;SDS011;42502;40.732;-74.254;2023-02-28T11:53:17;0.20;;;0.00;;
56629;SDS011;42502;40.732;-74.254;2023-02-28T11:57:48;3.10;;;0.10;;
56629;SDS011;42502;40.732;-74.254;2023-02-28T12:02:29;1.05;;;0.03;;
56629;SDS011;42502;40.732;-74.254;2023-02-28T12:04:40;7.35;;;0.43;;
56629;SDS011;42502;40.732;-74.254;2023-02-28T12:11:45;2.17;;;0.10;;
56629;SDS011;42502;40.732;-74.254;2023-02-28T12:16:48;1.25;;;0.10;;
56629;SDS011;42502;40.732;-74.254;2023-02-28T12:26:02;1.45;;;0.20;;
56629;SDS011;42502;40.732;-74.254;2023-02-28T12:28:21;4.63;;;0.10;;
56629;SDS011;42502;40.732;-74.254;2023-02-28T12:30:28;1.30;;;0.10;;
56629;SDS011;42502;40.732;-74.254;2023-02-28T12:32:37;5.90;;;0.20;;
56629;SDS011;42502;40.732;-74.254;2023-02-28T12:34:42;1.95;;;0.20;;
56629;SDS011;42502;40.732;-74.254;2023-02-28T12:37:07;3.83;;;0.20;;
56629;SDS011;42502;40.732;-74.254;2023-02-28T12:41:42;2.17;;;0.10;;
56629;SDS011;42502;40.732;-74.254;2023-02-28T12:44:09;4.82;;;0.10;;
56629;SDS011;42502;40.732;-74.254;2023-02-28T12:46:19;1.70;;;0.20;;
56629;SDS011;42502;40.732;-74.254;2023-02-28T12:50:44;0.30;;;0.17;;
56629;SDS011;42502;40.732;-74.254;2023-02-28T12:55:00;2.17;;;0.20;;
56629;SDS011;42502;40.732;-74.254;2023-02-28T12:57:09;4.68;;;0.40;;
56629;SDS011;42502;40.732;-74.254;2023-02-28T13:06:28;4.22;;;0.30;;
56629;SDS011;42502;40.732;-74.254;2023-02-28T13:11:07;6.53;;;0.40;;
56629;SDS011;42502;40.732;-74.254;2023-02-28T13:13:31;1.42;;;0.30;;
56629;SDS011;42502;40.732;-74.254;2023-02-28T13:15:32;1.25;;;0.20;;
56629;SDS011;42502;40.732;-74.254;2023-02-28T13:17:38;4.15;;;0.50;;
56629;SDS011;42502;40.732;-74.254;2023-02-28T13:19:45;2.97;;;0.38;;
56629;SDS011;42502;40.732;-74.254;2023-02-28T13:21:57;4.22;;;0.47;;
56629;SDS011;42502;40.732;-74.254;2023-02-28T13:24:00;7.10;;;0.45;;
56629;SDS011;42502;40.732;-74.254;2023-02-28T13:26:03;3.95;;;0.40;;
56629;SDS011;42502;40.732;-74.254;2023-02-28T13:28:08;5.15;;;0.50;;
56629;SDS011;42502;40.732;-74.254;2023-02-28T13:33:17;2.38;;;0.40;;
56629;SDS011;42502;40.732;-74.254;2023-02-28T13:35:36;11.55;;;0.47;;
56629;SDS011;42502;40.732;-74.254;2023-02-28T13:37:43;6.07;;;0.45;;
56629;SDS011;42502;40.732;-74.254;2023-02-28T13:42:17;8.45;;;0.40;;
56629;SDS011;42502;40.732;-74.254;2023-02-28T13:44:27;7.03;;;0.75;;
56629;SDS011;42502;40.732;-74.254;2023-02-28T13:48:51;6.65;;;0.50;;
56629;SDS011;42502;40.732;-74.254;2023-02-28T13:50:52;5.43;;;0.50;;
56629;SDS011;42502;40.732;-74.254;2023-02-28T13:53:00;3.50;;;0.40;;
56629;SDS011;42502;40.732;-74.254;2023-02-28T14:07:20;4.80;;;0.50;;